Time;durP1;ratioP1;P1;durP2;ratioP2;P2;SDS_P1;SDS_P2;PMS_P1;PMS_P2;Temp;Humidity;BMP_temperature;BMP_pressure;BME280_temperature;BME280_humidity;BME280_pressure;Samples;Min_cycle;Max_cycle;Signal;HPM_P1;HPM_P2
2022/11/29 00:01:37;;;;;;;32.53;29.23;;;6.30;99.90;;;;;;5077299;28;20421;-79
2022/11/29 00:04:06;;;;;;;30.43;27.30;;;6.30;99.90;;;;;;5074555;28;20469;-79
2022/11/29 00:06:36;;;;;;;33.10;29.50;;;6.30;99.90;;;;;;5075903;28;20478;-79
2022/11/29 00:09:06;;;;;;;32.00;28.80;;;6.30;99.90;;;;;;5074564;28;20804;-79
2022/11/29 00:14:23;;;;;;;30.67;27.50;;;6.30;99.90;;;;;;5073577;28;20469;-79
2022/11/29 00:16:53;;;;;;;31.00;27.67;;;6.20;99.90;;;;;;5070467;28;20461;-79
2022/11/29 00:19:22;;;;;;;32.37;29.00;;;6.20;99.90;;;;;;5073536;28;20444;-79
2022/11/29 00:21:51;;;;;;;31.97;28.73;;;6.20;99.90;;;;;;5075469;28;20443;-79
2022/11/29 00:24:20;;;;;;;31.90;28.60;;;6.20;99.90;;;;;;5073412;28;20501;-79
2022/11/29 00:26:48;;;;;;;33.70;30.37;;;6.20;99.90;;;;;;5073023;28;20515;-78
2022/11/29 00:29:18;;;;;;;32.43;29.07;;;6.20;99.90;;;;;;5072753;28;20445;-79
2022/11/29 00:31:46;;;;;;;33.93;30.33;;;6.20;99.90;;;;;;5072093;28;20456;-79
2022/11/29 00:34:14;;;;;;;31.03;27.67;;;6.20;99.90;;;;;;5072964;28;20465;-79
2022/11/29 00:36:42;;;;;;;33.03;29.70;;;6.20;99.90;;;;;;5072779;28;20882;-78
2022/11/29 00:39:12;;;;;;;32.17;28.67;;;6.40;99.90;;;;;;5072910;28;20453;-79
2022/11/29 00:41:40;;;;;;;32.43;29.13;;;6.20;99.90;;;;;;5072768;28;20536;-79
2022/11/29 00:44:09;;;;;;;33.57;29.90;;;6.20;99.90;;;;;;5074145;28;20462;-79
2022/11/29 00:46:43;;;;;;;34.03;29.17;;;6.20;99.90;;;;;;5074018;28;20456;-79
2022/11/29 00:49:11;;;;;;;33.53;29.93;;;6.20;99.90;;;;;;5074485;28;20951;-79
2022/11/29 00:51:40;;;;;;;32.03;28.73;;;6.20;99.90;;;;;;5077683;28;20445;-79
2022/11/29 00:54:08;;;;;;;33.20;29.60;;;6.20;99.90;;;;;;5075573;28;20457;-79
2022/11/29 00:56:37;;;;;;;32.07;28.73;;;6.20;99.90;;;;;;5074498;28;20437;-79
2022/11/29 00:59:05;;;;;;;33.40;30.00;;;6.20;99.90;;;;;;5072671;28;20836;-79
2022/11/29 01:01:33;;;;;;;30.60;27.50;;;6.20;99.90;;;;;;5073936;28;20441;-79
2022/11/29 01:04:02;;;;;;;37.73;31.87;;;6.20;99.90;;;;;;5072369;28;21028;-79
2022/11/29 01:06:30;;;;;;;33.10;29.50;;;6.20;99.90;;;;;;5068319;28;20477;-79
2022/11/29 01:08:58;;;;;;;34.23;30.63;;;6.20;99.90;;;;;;5072036;28;20452;-79
2022/11/29 01:11:28;;;;;;;35.70;30.63;;;6.20;99.90;;;;;;5072422;28;20460;-79
2022/11/29 01:14:00;;;;;;;36.13;29.90;;;6.20;99.90;;;;;;5072426;28;20473;-78
2022/11/29 01:16:29;;;;;;;34.60;30.20;;;6.20;99.90;;;;;;5072140;28;20455;-79
2022/11/29 01:18:58;;;;;;;34.13;29.90;;;6.20;99.90;;;;;;5072143;28;20479;-78
2022/11/29 01:21:26;;;;;;;33.50;28.60;;;6.20;99.90;;;;;;5072067;28;20962;-79
2022/11/29 01:23:54;;;;;;;34.10;30.53;;;6.20;99.90;;;;;;5072347;28;20542;-79
2022/11/29 01:26:25;;;;;;;36.00;31.80;;;6.20;99.90;;;;;;5072486;28;20818;-79
2022/11/29 01:28:55;;;;;;;32.47;28.53;;;6.20;99.90;;;;;;5076856;28;20473;-79
2022/11/29 01:31:27;;;;;;;35.40;31.23;;;6.10;99.90;;;;;;5076238;28;20449;-79
2022/11/29 01:33:57;;;;;;;34.57;30.87;;;6.20;99.90;;;;;;5074879;28;20590;-79
2022/11/29 01:36:25;;;;;;;32.63;29.13;;;6.20;99.90;;;;;;5074796;28;20798;-79
2022/11/29 01:38:54;;;;;;;34.03;30.27;;;6.20;99.90;;;;;;5075630;28;20969;-79
2022/11/29 01:41:24;;;;;;;37.50;31.40;;;6.20;99.90;;;;;;5074551;28;20808;-79
2022/11/29 01:44:02;;;;;;;35.00;30.27;;;6.20;99.90;;;;;;5077557;28;20473;-79
2022/11/29 01:46:33;;;;;;;32.60;28.77;;;6.20;99.90;;;;;;5077310;28;20436;-79
2022/11/29 01:49:07;;;;;;;35.43;30.70;;;6.10;99.90;;;;;;5077136;28;20840;-79
2022/11/29 01:51:38;;;;;;;35.37;29.37;;;6.20;99.90;;;;;;5077131;28;20443;-79
2022/11/29 01:54:09;;;;;;;35.33;31.40;;;6.20;99.90;;;;;;5077147;28;20476;-79
2022/11/29 01:56:38;;;;;;;34.03;30.37;;;6.20;99.90;;;;;;5072784;28;20461;-79
2022/11/29 01:59:10;;;;;;;38.67;32.00;;;6.20;99.90;;;;;;5078076;28;20437;-79
2022/11/29 02:01:40;;;;;;;36.83;31.70;;;6.20;99.90;;;;;;5077995;28;20432;-79
2022/11/29 02:04:08;;;;;;;35.53;31.27;;;6.20;99.90;;;;;;5076493;28;20464;-78
2022/11/29 02:06:38;;;;;;;35.10;31.30;;;6.20;99.90;;;;;;5075920;28;20449;-79
2022/11/29 02:09:18;;;;;;;35.47;30.07;;;6.20;99.90;;;;;;5077147;28;20475;-79
2022/11/29 02:12:05;;;;;;;34.90;31.00;;;6.20;99.90;;;;;;5075931;28;20467;-79
2022/11/29 02:14:47;;;;;;;31.40;28.07;;;6.20;99.90;;;;;;5075933;28;20480;-79
2022/11/29 02:17:25;;;;;;;39.63;31.60;;;6.20;99.90;;;;;;5075587;28;20441;-79
2022/11/29 02:20:22;;;;;;;37.10;32.13;;;6.10;99.90;;;;;;5077013;28;20421;-79
2022/11/29 02:22:57;;;;;;;34.50;29.10;;;6.20;99.90;;;;;;5076945;28;20421;-79
2022/11/29 02:25:42;;;;;;;33.80;30.03;;;6.20;99.90;;;;;;5076151;28;20808;-79
2022/11/29 02:28:44;;;;;;;33.17;29.53;;;6.20;99.90;;;;;;5076681;28;20854;-79
2022/11/29 02:31:58;;;;;;;37.90;32.47;;;6.20;99.90;;;;;;5075519;28;20816;-79
2022/11/29 02:34:44;;;;;;;33.00;29.40;;;6.10;99.90;;;;;;5076826;28;20844;-79
2022/11/29 02:37:28;;;;;;;37.00;32.77;;;6.10;99.90;;;;;;5076650;28;20417;-79
2022/11/29 02:40:25;;;;;;;33.33;28.40;;;6.10;99.90;;;;;;5075314;28;20491;-79
2022/11/29 02:43:14;;;;;;;33.83;29.60;;;6.10;99.90;;;;;;5075394;28;20984;-79
2022/11/29 02:45:58;;;;;;;36.00;30.87;;;6.10;99.90;;;;;;5075527;28;20491;-79
2022/11/29 02:48:51;;;;;;;36.40;31.00;;;6.10;99.90;;;;;;5074734;28;20468;-78
2022/11/29 02:51:29;;;;;;;32.10;28.80;;;6.10;99.90;;;;;;5077199;28;20417;-79
2022/11/29 02:54:04;;;;;;;38.83;31.50;;;6.10;99.90;;;;;;5074532;28;20476;-79
2022/11/29 02:56:39;;;;;;;34.60;30.40;;;6.10;99.90;;;;;;5074958;28;20447;-79
2022/11/29 02:59:16;;;;;;;34.90;31.03;;;6.10;99.90;;;;;;5075009;28;20449;-79
2022/11/29 03:01:57;;;;;;;34.90;31.10;;;6.10;99.90;;;;;;5075046;28;20452;-79
2022/11/29 03:04:32;;;;;;;34.03;29.33;;;6.10;99.90;;;;;;5074939;28;20473;-79
2022/11/29 03:07:07;;;;;;;36.50;32.70;;;6.10;99.90;;;;;;5074638;28;20444;-79
2022/11/29 03:09:41;;;;;;;34.80;31.13;;;6.10;99.90;;;;;;5074736;28;20464;-79
2022/11/29 03:12:18;;;;;;;34.20;30.50;;;6.10;99.90;;;;;;5074912;28;20444;-79
2022/11/29 03:14:56;;;;;;;37.23;31.20;;;6.10;99.90;;;;;;5074654;28;20473;-79
2022/11/29 03:17:40;;;;;;;34.00;29.70;;;6.10;99.90;;;;;;5076259;28;20414;-79
2022/11/29 03:20:25;;;;;;;37.00;31.67;;;6.10;99.90;;;;;;5074732;28;20442;-79
2022/11/29 03:23:09;;;;;;;33.80;30.23;;;6.20;99.90;;;;;;5074736;28;20437;-79
2022/11/29 03:25:43;;;;;;;35.60;31.83;;;6.10;99.90;;;;;;5074934;28;20438;-79
2022/11/29 03:28:17;;;;;;;33.07;29.50;;;6.10;99.90;;;;;;5074301;28;20461;-79
2022/11/29 03:30:51;;;;;;;33.50;29.90;;;6.10;99.90;;;;;;5074572;28;20468;-79
2022/11/29 03:33:27;;;;;;;35.67;31.90;;;6.10;99.90;;;;;;5075332;28;20466;-79
2022/11/29 03:36:01;;;;;;;36.00;29.87;;;6.20;99.90;;;;;;5075004;28;20437;-79
2022/11/29 03:38:38;;;;;;;35.10;31.40;;;6.10;99.90;;;;;;5072431;28;20460;-79
2022/11/29 03:41:15;;;;;;;36.17;31.53;;;6.20;99.90;;;;;;5074416;28;20441;-79
2022/11/29 03:43:46;;;;;;;34.83;30.70;;;6.10;99.90;;;;;;5075003;28;20469;-79
2022/11/29 03:46:21;;;;;;;34.10;30.60;;;6.10;99.90;;;;;;5076245;28;20467;-79
2022/11/29 03:48:54;;;;;;;35.87;30.70;;;6.10;99.90;;;;;;5076153;28;20452;-79
2022/11/29 03:51:26;;;;;;;34.17;30.53;;;6.10;99.90;;;;;;5074456;28;20442;-79
2022/11/29 03:54:01;;;;;;;35.70;31.77;;;6.10;99.90;;;;;;5075676;28;20508;-79
2022/11/29 03:56:31;;;;;;;34.17;28.87;;;6.20;99.90;;;;;;5073697;28;20544;-79
2022/11/29 03:59:11;;;;;;;36.73;30.60;;;6.20;99.90;;;;;;5079877;28;20441;-79
2022/11/29 04:02:02;;;;;;;34.73;31.03;;;6.20;99.90;;;;;;5082423;28;20449;-78
2022/11/29 04:05:02;;;;;;;36.37;30.20;;;6.20;99.90;;;;;;5082535;28;20465;-79
2022/11/29 04:07:47;;;;;;;36.27;30.70;;;6.20;99.90;;;;;;5083202;28;20468;-79
2022/11/29 04:10:50;;;;;;;33.33;28.57;;;6.20;99.90;;;;;;5084328;28;20468;-78
2022/11/29 04:13:57;;;;;;;33.43;27.73;;;6.20;99.90;;;;;;5080908;28;20571;-79
2022/11/29 04:17:16;;;;;;;32.33;28.90;;;6.20;99.90;;;;;;5077379;28;20465;-79
2022/11/29 04:20:17;;;;;;;33.47;29.43;;;6.20;99.90;;;;;;5085079;28;20420;-79
2022/11/29 04:23:14;;;;;;;34.63;29.77;;;6.20;99.90;;;;;;5051964;28;20492;-79
2022/11/29 04:26:20;;;;;;;30.97;27.67;;;6.20;99.90;;;;;;5079720;28;20809;-79
2022/11/29 04:29:11;;;;;;;33.93;28.70;;;6.20;99.90;;;;;;5079474;28;20674;-79
2022/11/29 04:31:58;;;;;;;33.17;28.90;;;6.20;99.90;;;;;;5081814;28;20457;-79
2022/11/29 04:34:55;;;;;;;34.93;30.80;;;6.20;99.90;;;;;;5076982;28;20480;-79
2022/11/29 04:37:58;;;;;;;33.53;29.97;;;6.20;99.90;;;;;;5078298;28;20429;-79
2022/11/29 04:40:35;;;;;;;31.97;28.67;;;6.20;99.90;;;;;;5047385;28;20471;-79
2022/11/29 04:43:48;;;;;;;32.10;28.77;;;6.20;99.90;;;;;;5078071;28;20493;-79
2022/11/29 04:46:49;;;;;;;33.80;29.97;;;6.20;99.90;;;;;;5073984;28;20856;-79
2022/11/29 04:49:34;;;;;;;34.03;30.33;;;6.20;99.90;;;;;;5073516;28;20469;-79
2022/11/29 04:52:21;;;;;;;36.17;31.17;;;6.10;99.90;;;;;;5073248;28;20449;-79
2022/11/29 04:54:57;;;;;;;34.27;30.30;;;6.20;99.90;;;;;;5074827;28;20491;-79
2022/11/29 04:57:35;;;;;;;32.30;29.00;;;6.20;99.90;;;;;;5075003;28;20440;-79
2022/11/29 05:00:09;;;;;;;32.10;28.60;;;6.20;99.90;;;;;;5076778;28;20421;-79
2022/11/29 05:02:46;;;;;;;33.37;29.83;;;6.20;99.90;;;;;;5058719;28;20450;-79
2022/11/29 05:05:24;;;;;;;34.93;30.07;;;6.10;99.90;;;;;;5075256;28;20468;-79
2022/11/29 05:08:02;;;;;;;32.43;28.80;;;6.20;99.90;;;;;;5075574;28;20440;-79
2022/11/29 05:10:35;;;;;;;33.20;29.07;;;6.20;99.90;;;;;;5076068;28;20449;-79
2022/11/29 05:13:11;;;;;;;34.13;30.80;;;6.20;99.90;;;;;;5077093;28;20421;-79
2022/11/29 05:16:00;;;;;;;34.30;30.40;;;6.20;99.90;;;;;;5077098;28;20471;-79
2022/11/29 05:18:53;;;;;;;34.00;29.30;;;6.20;99.90;;;;;;5074971;28;20457;-79
2022/11/29 05:21:34;;;;;;;31.67;28.50;;;6.20;99.90;;;;;;5075287;28;20951;-80
2022/11/29 05:24:17;;;;;;;31.33;27.93;;;6.20;99.90;;;;;;5075898;28;20474;-79
2022/11/29 05:26:54;;;;;;;33.73;30.37;;;6.20;99.90;;;;;;5075380;28;20536;-79
2022/11/29 05:29:30;;;;;;;34.87;30.20;;;6.20;99.90;;;;;;5075453;28;20472;-80
2022/11/29 05:32:13;;;;;;;33.63;30.23;;;6.20;99.90;;;;;;5076446;28;20896;-80
2022/11/29 05:35:07;;;;;;;34.47;29.30;;;6.20;99.90;;;;;;5075627;28;20480;-79
2022/11/29 05:37:44;;;;;;;32.13;27.80;;;6.20;99.90;;;;;;5077176;28;20517;-80
2022/11/29 05:40:34;;;;;;;32.80;29.23;;;6.20;99.90;;;;;;5076894;28;20420;-79
2022/11/29 05:43:15;;;;;;;34.00;30.67;;;6.20;99.90;;;;;;5073868;28;20438;-79
2022/11/29 05:45:49;;;;;;;33.30;29.70;;;6.20;99.90;;;;;;5074479;28;20444;-79
2022/11/29 05:48:26;;;;;;;32.50;29.20;;;6.10;99.90;;;;;;5074109;28;20417;-79
2022/11/29 05:51:05;;;;;;;33.17;29.60;;;6.20;99.90;;;;;;5073447;28;20461;-79
2022/11/29 05:53:42;;;;;;;39.00;32.53;;;6.20;99.90;;;;;;5072443;28;20469;-79
2022/11/29 05:56:17;;;;;;;33.47;30.00;;;6.20;99.90;;;;;;5074751;28;20433;-79
2022/11/29 05:58:50;;;;;;;32.13;28.83;;;6.10;99.90;;;;;;5072274;28;20441;-79
2022/11/29 06:01:22;;;;;;;35.17;31.47;;;6.20;99.90;;;;;;5073390;28;20922;-79
2022/11/29 06:03:58;;;;;;;34.20;30.33;;;6.20;99.90;;;;;;5072425;28;20476;-79
2022/11/29 06:06:38;;;;;;;39.77;32.23;;;6.20;99.90;;;;;;5071021;28;20452;-79
2022/11/29 06:09:16;;;;;;;35.00;31.40;;;6.20;99.90;;;;;;5053573;28;20427;-79
2022/11/29 06:11:47;;;;;;;38.20;31.80;;;6.10;99.90;;;;;;5052357;28;20445;-79
2022/11/29 06:14:37;;;;;;;35.90;30.90;;;6.20;99.90;;;;;;5051939;28;20469;-79
2022/11/29 06:17:24;;;;;;;35.00;30.67;;;6.20;99.90;;;;;;5052002;28;20928;-79
2022/11/29 06:20:22;;;;;;;35.13;29.87;;;6.20;99.90;;;;;;5052529;28;20801;-79
2022/11/29 06:23:27;;;;;;;39.03;31.00;;;6.20;99.90;;;;;;5054110;28;20453;-80
2022/11/29 06:26:12;;;;;;;38.63;33.20;;;6.20;99.90;;;;;;5001911;28;20446;-80
2022/11/29 06:28:52;;;;;;;34.10;30.40;;;6.10;99.90;;;;;;5054665;28;20450;-80
2022/11/29 06:31:24;;;;;;;43.07;32.33;;;6.20;99.90;;;;;;5058738;28;20531;-80
2022/11/29 06:33:59;;;;;;;38.03;33.50;;;6.20;99.90;;;;;;5057216;28;20466;-80
2022/11/29 06:36:34;;;;;;;36.17;32.27;;;6.20;99.90;;;;;;5057400;28;20468;-80
2022/11/29 06:39:02;;;;;;;42.60;33.50;;;6.10;99.90;;;;;;5056940;28;20445;-80
2022/11/29 06:41:34;;;;;;;42.20;34.80;;;6.10;99.90;;;;;;5059637;28;20443;-80
2022/11/29 06:44:03;;;;;;;38.07;33.93;;;6.10;99.90;;;;;;5057591;28;20470;-81
2022/11/29 06:46:43;;;;;;;39.93;35.13;;;6.10;99.90;;;;;;5056700;28;20454;-81
2022/11/29 06:49:18;;;;;;;39.00;33.60;;;6.10;99.90;;;;;;5056926;28;20544;-81
2022/11/29 06:51:59;;;;;;;36.90;31.80;;;6.10;99.90;;;;;;5056776;28;20438;-81
2022/11/29 06:54:47;;;;;;;36.20;32.13;;;6.10;99.90;;;;;;5058422;28;20832;-81
2022/11/29 06:57:23;;;;;;;44.00;32.87;;;6.10;99.90;;;;;;5062353;28;20548;-81
2022/11/29 07:00:02;;;;;;;47.00;35.80;;;6.30;99.90;;;;;;5078311;28;20424;-80
2022/11/29 07:03:14;;;;;;;42.40;34.60;;;6.10;99.90;;;;;;5080081;28;20519;-80
2022/11/29 07:05:43;;;;;;;44.63;35.37;;;6.10;99.90;;;;;;5020405;28;20440;-80
2022/11/29 07:08:17;;;;;;;44.27;35.20;;;6.10;99.90;;;;;;5070729;28;20449;-81
2022/11/29 07:10:49;;;;;;;44.87;35.33;;;6.10;99.90;;;;;;5077463;28;20465;-80
2022/11/29 07:13:20;;;;;;;43.37;34.80;;;6.10;99.90;;;;;;5079111;28;20467;-81
2022/11/29 07:16:09;;;;;;;48.80;38.13;;;6.10;99.90;;;;;;5078289;28;20467;-80
2022/11/29 07:18:46;;;;;;;52.13;38.40;;;6.10;99.90;;;;;;5077750;28;20461;-80
2022/11/29 07:21:22;;;;;;;47.57;35.70;;;6.10;99.90;;;;;;5077577;28;20820;-80
2022/11/29 07:24:02;;;;;;;53.73;40.83;;;6.10;99.90;;;;;;5078224;28;20992;-80
2022/11/29 07:26:40;;;;;;;51.70;39.90;;;6.10;99.90;;;;;;5078535;28;20456;-81
2022/11/29 07:29:24;;;;;;;46.53;38.33;;;6.10;99.90;;;;;;5078577;28;20819;-81
2022/11/29 07:32:07;;;;;;;49.57;36.60;;;6.10;99.90;;;;;;5077816;28;20571;-81
2022/11/29 07:34:50;;;;;;;58.37;41.63;;;6.10;99.90;;;;;;5078305;28;20468;-81
2022/11/29 07:37:27;;;;;;;54.03;37.90;;;6.10;99.90;;;;;;5078439;28;20436;-80
2022/11/29 07:40:07;;;;;;;46.97;39.43;;;6.10;99.90;;;;;;5076636;28;20444;-81
2022/11/29 07:42:42;;;;;;;51.23;39.63;;;6.10;99.90;;;;;;5077015;28;20445;-80
2022/11/29 07:45:17;;;;;;;53.00;38.70;;;6.10;99.90;;;;;;5079034;28;20449;-80
2022/11/29 07:47:49;;;;;;;51.80;39.47;;;6.10;99.90;;;;;;5076145;28;20452;-80
2022/11/29 07:50:18;;;;;;;49.37;37.93;;;6.10;99.90;;;;;;5077946;28;20453;-81
2022/11/29 07:52:47;;;;;;;47.90;39.50;;;6.30;99.90;;;;;;5078439;28;20529;-80
2022/11/29 07:55:19;;;;;;;51.87;39.87;;;6.10;99.90;;;;;;5078218;28;20860;-81
2022/11/29 07:57:51;;;;;;;46.33;39.37;;;6.20;99.90;;;;;;5076831;28;20858;-81
2022/11/29 08:00:20;;;;;;;49.30;38.00;;;6.30;99.90;;;;;;5077742;28;20440;-80
2022/11/29 08:02:50;;;;;;;52.13;39.37;;;6.10;99.90;;;;;;5076736;28;20445;-81
2022/11/29 08:05:18;;;;;;;48.53;39.20;;;6.10;99.90;;;;;;5076227;28;20571;-81
2022/11/29 08:07:50;;;;;;;52.23;38.30;;;6.10;99.90;;;;;;5079915;28;20425;-80
2022/11/29 08:10:20;;;;;;;51.17;39.37;;;6.10;99.90;;;;;;5079880;28;20464;-81
2022/11/29 08:12:50;;;;;;;49.80;39.13;;;6.10;99.90;;;;;;5079144;28;20504;-81
2022/11/29 08:15:20;;;;;;;52.37;39.60;;;6.10;99.90;;;;;;5077406;28;20437;-81
2022/11/29 08:17:49;;;;;;;57.13;43.03;;;6.10;99.90;;;;;;5081983;28;20445;-81
2022/11/29 08:20:18;;;;;;;50.00;39.00;;;6.10;99.90;;;;;;5079094;28;20520;-81
2022/11/29 08:22:53;;;;;;;55.80;38.17;;;6.10;99.90;;;;;;5079270;28;20428;-81
2022/11/29 08:25:23;;;;;;;51.23;40.97;;;6.20;99.90;;;;;;5078685;28;20837;-80
2022/11/29 08:27:53;;;;;;;51.37;39.50;;;6.10;99.90;;;;;;5077016;28;20453;-81
2022/11/29 08:30:22;;;;;;;50.07;39.43;;;6.20;99.90;;;;;;5077024;28;20457;-81
2022/11/29 08:32:51;;;;;;;60.90;42.17;;;6.20;99.90;;;;;;5076617;28;20520;-80
2022/11/29 08:35:21;;;;;;;52.53;41.07;;;6.10;99.90;;;;;;5076333;28;20448;-80
2022/11/29 08:37:50;;;;;;;54.10;41.90;;;6.20;99.90;;;;;;5075192;28;20446;-81
2022/11/29 08:40:18;;;;;;;50.83;39.20;;;6.20;99.90;;;;;;5075505;28;20453;-80
2022/11/29 08:42:48;;;;;;;48.83;37.97;;;6.20;99.90;;;;;;5075486;28;20445;-80
2022/11/29 08:45:16;;;;;;;48.50;37.27;;;6.20;99.90;;;;;;5075567;28;20552;-80
2022/11/29 08:47:44;;;;;;;49.80;38.30;;;6.20;99.90;;;;;;5076696;28;20446;-80
2022/11/29 08:50:14;;;;;;;52.03;38.37;;;6.20;99.90;;;;;;5075187;28;20449;-80
2022/11/29 08:55:33;;;;;;;54.83;40.37;;;6.20;99.90;;;;;;5076629;28;20420;-80
2022/11/29 08:58:04;;;;;;;48.33;37.17;;;6.30;99.90;;;;;;5075058;28;20445;-80
2022/11/29 09:00:34;;;;;;;48.70;37.90;;;6.30;99.90;;;;;;5075553;28;20804;-80
2022/11/29 09:05:49;;;;;;;52.03;37.80;;;6.30;99.90;;;;;;5077179;28;20945;-80
2022/11/29 09:08:17;;;;;;;54.30;37.60;;;6.30;99.90;;;;;;5076305;28;20453;-80
2022/11/29 09:10:46;;;;;;;46.60;35.43;;;6.30;99.90;;;;;;5077653;28;20476;-80
2022/11/29 09:13:16;;;;;;;44.73;37.73;;;6.30;99.90;;;;;;5075973;28;20532;-81
2022/11/29 09:15:45;;;;;;;46.57;36.30;;;6.30;99.90;;;;;;5075862;28;20449;-81
2022/11/29 09:18:13;;;;;;;46.87;37.07;;;6.30;99.90;;;;;;5075489;28;20528;-81
2022/11/29 09:20:43;;;;;;;48.27;38.63;;;6.40;99.90;;;;;;5079935;28;20445;-81
2022/11/29 09:23:12;;;;;;;43.87;36.07;;;6.40;99.90;;;;;;5081820;28;20469;-82
2022/11/29 09:25:40;;;;;;;47.87;37.83;;;6.40;99.90;;;;;;5079177;28;20452;-82
2022/11/29 09:28:08;;;;;;;45.43;38.57;;;6.40;99.90;;;;;;5076536;28;20450;-82
2022/11/29 09:30:38;;;;;;;49.37;38.23;;;6.40;99.90;;;;;;5079645;28;20484;-81
2022/11/29 09:33:06;;;;;;;46.53;37.23;;;6.40;99.90;;;;;;5079362;28;20841;-82
2022/11/29 09:35:34;;;;;;;40.93;34.80;;;6.40;99.90;;;;;;5078377;28;20931;-82
2022/11/29 09:38:03;;;;;;;46.17;37.97;;;6.40;99.90;;;;;;5077238;28;20476;-82
2022/11/29 09:40:37;;;;;;;43.10;38.13;;;6.40;99.90;;;;;;5076794;28;20456;-82
2022/11/29 09:43:14;;;;;;;47.57;38.67;;;6.50;99.90;;;;;;5077980;28;20839;-82
2022/11/29 09:45:47;;;;;;;47.30;38.40;;;6.50;99.90;;;;;;5076417;28;20445;-81
2022/11/29 09:48:52;;;;;;;44.23;38.43;;;6.50;99.90;;;;;;5076619;28;20950;-81
2022/11/29 09:51:27;;;;;;;50.83;38.70;;;6.50;99.90;;;;;;5077784;28;20530;-81
2022/11/29 09:54:15;;;;;;;44.20;39.40;;;6.50;99.90;;;;;;5078043;28;20506;-82
2022/11/29 09:56:46;;;;;;;46.63;38.50;;;6.50;99.90;;;;;;5077910;28;20921;-82
2022/11/29 09:59:21;;;;;;;42.97;37.30;;;6.50;99.90;;;;;;5077153;28;20417;-82
2022/11/29 10:01:58;;;;;;;42.93;37.23;;;6.60;99.90;;;;;;5077262;28;20773;-82
2022/11/29 10:04:30;;;;;;;39.53;35.13;;;6.60;99.90;;;;;;5080325;28;20481;-82
2022/11/29 10:07:04;;;;;;;39.13;34.53;;;6.60;99.90;;;;;;5081961;28;20428;-82
2022/11/29 10:09:38;;;;;;;45.37;37.70;;;6.60;99.90;;;;;;5082353;28;20421;-81
2022/11/29 10:12:14;;;;;;;42.37;36.23;;;6.70;99.90;;;;;;5084496;28;20493;-81
2022/11/29 10:14:47;;;;;;;42.80;36.00;;;6.70;99.90;;;;;;5081740;28;20487;-82
2022/11/29 10:17:28;;;;;;;38.20;33.90;;;6.70;99.90;;;;;;5076810;28;20453;-82
2022/11/29 10:20:00;;;;;;;41.90;36.57;;;6.70;99.90;;;;;;5079701;28;20446;-82
2022/11/29 10:22:39;;;;;;;40.83;36.10;;;6.70;99.90;;;;;;5081477;28;20501;-82
2022/11/29 10:25:15;;;;;;;41.10;35.47;;;6.70;99.90;;;;;;5080984;28;20488;-82
2022/11/29 10:27:43;;;;;;;43.10;36.43;;;6.70;99.90;;;;;;5080105;28;20441;-82
2022/11/29 10:30:15;;;;;;;41.67;35.50;;;6.80;99.90;;;;;;5080120;28;20441;-82
2022/11/29 10:32:48;;;;;;;37.23;33.20;;;6.80;99.90;;;;;;5079134;28;20467;-82
2022/11/29 10:35:18;;;;;;;41.00;34.50;;;6.80;99.90;;;;;;5078670;28;20475;-82
2022/11/29 10:37:48;;;;;;;39.17;34.27;;;6.80;99.90;;;;;;5080111;28;20508;-82
2022/11/29 10:40:39;;;;;;;39.10;33.37;;;6.80;99.90;;;;;;5080448;28;20918;-82
2022/11/29 10:43:07;;;;;;;39.43;33.13;;;6.90;99.90;;;;;;5078946;28;20437;-82
2022/11/29 10:45:39;;;;;;;40.23;33.77;;;6.90;99.90;;;;;;5080554;28;20515;-82
2022/11/29 10:48:14;;;;;;;40.40;32.43;;;6.90;99.90;;;;;;5079304;28;20445;-82
2022/11/29 10:50:44;;;;;;;41.20;36.53;;;6.90;99.90;;;;;;5079246;28;20447;-82
2022/11/29 10:53:15;;;;;;;46.33;35.27;;;6.90;99.90;;;;;;5080058;28;20898;-82
2022/11/29 10:55:46;;;;;;;43.50;34.67;;;6.90;99.90;;;;;;5080785;28;20781;-82
2022/11/29 10:58:22;;;;;;;48.93;36.97;;;6.90;99.90;;;;;;5088783;28;20525;-82
2022/11/29 11:00:59;;;;;;;43.73;36.00;;;6.90;99.90;;;;;;5093243;28;20445;-82
2022/11/29 11:03:38;;;;;;;41.17;35.23;;;6.90;99.90;;;;;;5083520;28;20476;-82
2022/11/29 11:06:10;;;;;;;44.10;35.93;;;7.10;99.90;;;;;;5078947;28;20441;-83
2022/11/29 11:08:42;;;;;;;40.90;35.80;;;6.90;99.90;;;;;;5093966;28;20449;-81
2022/11/29 11:11:11;;;;;;;42.57;36.67;;;7.00;99.90;;;;;;5083354;28;20499;-81
2022/11/29 11:13:40;;;;;;;43.73;35.97;;;7.00;99.90;;;;;;5077811;28;20489;-82
2022/11/29 11:16:15;;;;;;;47.33;36.00;;;7.00;99.90;;;;;;5079191;28;20434;-82
2022/11/29 11:18:47;;;;;;;44.93;34.60;;;7.00;99.90;;;;;;5080013;28;20509;-82
2022/11/29 11:21:17;;;;;;;44.17;35.80;;;7.00;99.90;;;;;;5078724;28;20532;-82
2022/11/29 11:23:53;;;;;;;45.03;34.37;;;7.00;99.90;;;;;;5078027;28;20492;-82
2022/11/29 11:26:21;;;;;;;48.23;37.07;;;7.00;99.90;;;;;;5078102;28;20483;-82
2022/11/29 11:28:53;;;;;;;44.60;35.17;;;7.10;99.90;;;;;;5077508;28;20438;-82
2022/11/29 11:31:33;;;;;;;43.83;36.00;;;7.00;99.90;;;;;;5077794;28;20447;-82
2022/11/29 11:34:28;;;;;;;44.13;35.83;;;7.10;99.90;;;;;;5077851;28;20475;-82
2022/11/29 11:37:18;;;;;;;43.33;34.60;;;7.10;99.90;;;;;;5077293;28;20455;-82
2022/11/29 11:39:49;;;;;;;42.93;34.23;;;7.10;99.90;;;;;;5077907;28;20519;-82
2022/11/29 11:42:37;;;;;;;46.10;34.80;;;7.10;99.90;;;;;;5079572;28;20912;-82
2022/11/29 11:45:27;;;;;;;41.43;34.70;;;7.10;99.90;;;;;;5078583;28;20457;-82
2022/11/29 11:47:58;;;;;;;40.50;35.43;;;7.20;99.90;;;;;;5079226;28;20434;-82
2022/11/29 11:50:33;;;;;;;45.00;37.07;;;7.20;99.90;;;;;;5086585;28;20923;-82
2022/11/29 11:53:05;;;;;;;42.13;36.00;;;7.20;99.90;;;;;;5079864;28;21011;-82
2022/11/29 11:55:38;;;;;;;47.10;36.50;;;7.20;99.90;;;;;;5075837;28;20839;-82
2022/11/29 11:58:16;;;;;;;44.70;36.10;;;7.20;99.90;;;;;;5061823;28;20979;-82
2022/11/29 12:00:48;;;;;;;43.70;36.00;;;7.20;99.90;;;;;;5072737;28;20442;-82
2022/11/29 12:03:43;;;;;;;42.30;36.80;;;7.40;99.90;;;;;;5057849;28;20459;-82
2022/11/29 12:06:38;;;;;;;41.60;34.83;;;7.30;99.90;;;;;;5074818;28;20437;-82
2022/11/29 12:09:18;;;;;;;44.53;38.80;;;7.30;99.90;;;;;;5072597;28;20451;-82
2022/11/29 12:12:00;;;;;;;43.53;35.40;;;7.30;99.90;;;;;;5057347;28;20441;-82
2022/11/29 12:14:35;;;;;;;43.63;36.47;;;7.30;99.90;;;;;;5072873;28;20491;-82
2022/11/29 12:17:14;;;;;;;42.17;34.70;;;7.30;99.90;;;;;;5071620;28;20860;-82
2022/11/29 12:19:57;;;;;;;38.87;33.93;;;7.30;99.90;;;;;;5058567;28;20487;-82
2022/11/29 12:22:35;;;;;;;40.07;34.43;;;7.30;99.90;;;;;;5058023;28;20461;-82
2022/11/29 12:25:09;;;;;;;42.43;33.47;;;7.30;99.90;;;;;;5073770;28;21038;-82
2022/11/29 12:27:39;;;;;;;39.37;34.10;;;7.30;99.90;;;;;;5057062;28;20439;-82
2022/11/29 12:30:13;;;;;;;37.77;32.53;;;7.30;99.90;;;;;;5072820;28;20953;-81
2022/11/29 12:33:06;;;;;;;38.90;32.70;;;7.40;99.90;;;;;;5056935;28;20494;-82
2022/11/29 12:35:49;;;;;;;37.40;32.27;;;7.40;99.90;;;;;;5074296;28;20508;-82
2022/11/29 12:38:36;;;;;;;39.90;33.07;;;7.40;99.90;;;;;;5073511;28;20463;-82
2022/11/29 12:41:22;;;;;;;39.40;32.37;;;7.40;99.90;;;;;;5072469;28;20774;-82
2022/11/29 12:44:04;;;;;;;45.00;35.27;;;7.40;99.90;;;;;;5072796;28;20481;-82
2022/11/29 12:46:33;;;;;;;38.93;31.40;;;7.40;99.90;;;;;;5058109;28;20968;-82
2022/11/29 12:49:13;;;;;;;36.10;30.60;;;7.40;99.90;;;;;;5058237;28;20445;-82
2022/11/29 12:51:48;;;;;;;40.13;32.67;;;7.40;99.90;;;;;;5056988;28;20449;-81
2022/11/29 12:54:35;;;;;;;39.80;33.30;;;7.40;99.90;;;;;;5056362;28;20568;-82
2022/11/29 12:57:10;;;;;;;37.80;32.33;;;7.40;99.90;;;;;;5056390;28;20620;-82
2022/11/29 13:00:00;;;;;;;40.70;34.13;;;7.40;99.90;;;;;;5056709;28;20442;-81
2022/11/29 13:02:41;;;;;;;39.10;31.87;;;7.40;99.90;;;;;;5064594;28;20434;-82
2022/11/29 13:05:20;;;;;;;37.17;32.40;;;7.40;99.90;;;;;;5065253;28;20474;-81
2022/11/29 13:08:02;;;;;;;35.83;31.10;;;7.50;99.90;;;;;;5065959;28;20468;-81
2022/11/29 13:10:55;;;;;;;39.73;31.10;;;7.50;99.90;;;;;;5056754;28;20485;-82
2022/11/29 13:13:33;;;;;;;36.00;31.97;;;7.50;99.90;;;;;;5057853;28;20486;-81
2022/11/29 13:16:08;;;;;;;35.97;31.37;;;7.50;99.90;;;;;;5057366;28;20430;-81
2022/11/29 13:18:45;;;;;;;38.70;32.23;;;7.50;99.90;;;;;;5056823;28;20447;-81
2022/11/29 13:21:16;;;;;;;36.47;31.23;;;7.50;99.90;;;;;;5055815;28;20469;-82
2022/11/29 13:23:51;;;;;;;35.43;30.30;;;7.50;99.90;;;;;;5055481;28;20664;-81
2022/11/29 13:26:39;;;;;;;36.90;30.80;;;7.50;99.90;;;;;;5054698;28;20800;-80
2022/11/29 13:29:14;;;;;;;34.30;28.63;;;7.50;99.90;;;;;;5056011;28;20423;-80
2022/11/29 13:31:43;;;;;;;34.13;28.57;;;7.50;99.90;;;;;;5055671;28;20459;-81
2022/11/29 13:34:18;;;;;;;33.47;29.17;;;7.50;99.90;;;;;;5054453;28;20532;-81